createdAt,value
2023-04-19T06:20:59.313Z,83.52
2023-04-19T06:30:58.221Z,81.41
2023-04-19T06:40:58.188Z,79.96
2023-04-19T06:50:58.430Z,80.16
2023-04-19T07:00:58.290Z,78.02
2023-04-19T07:10:58.271Z,74.64
2023-04-19T07:20:58.221Z,73.99
2023-04-19T07:30:58.230Z,72.10
2023-04-19T07:40:58.287Z,69.30
2023-04-19T07:50:58.208Z,65.37
2023-04-19T08:00:58.421Z,60.85
2023-04-19T08:11:00.132Z,59.27
2023-04-19T08:20:58.390Z,57.18
2023-04-19T08:30:58.412Z,57.34
2023-04-19T08:40:58.307Z,55.00
2023-04-19T08:51:05.145Z,52.36
2023-04-19T09:00:58.341Z,53.50
2023-04-19T09:10:58.278Z,50.42
2023-04-19T09:20:58.611Z,49.26
2023-04-19T09:31:10.628Z,48.04
2023-04-19T09:40:58.527Z,48.53
2023-04-19T09:51:02.400Z,46.26
2023-04-19T10:01:10.805Z,43.07
2023-04-19T10:10:59.263Z,40.54
2023-04-19T10:20:58.450Z,39.00
2023-04-19T10:30:58.351Z,37.45
2023-04-19T10:40:58.341Z,38.27
2023-04-19T10:50:58.411Z,38.58
2023-04-19T11:00:58.559Z,38.61
2023-04-19T11:10:58.472Z,39.48
2023-04-19T11:20:58.560Z,40.87
2023-04-19T11:30:58.527Z,40.09
2023-04-19T11:40:58.344Z,40.39
2023-04-19T11:50:58.327Z,41.61
2023-04-19T12:00:58.501Z,40.62
2023-04-19T12:10:58.333Z,40.40
2023-04-19T12:21:00.852Z,40.23
2023-04-19T12:30:58.352Z,43.30
2023-04-19T12:40:58.307Z,42.31
2023-04-19T12:50:58.425Z,42.21
2023-04-19T13:00:58.354Z,41.99
2023-04-19T13:10:58.503Z,41.42
2023-04-19T13:20:58.535Z,42.31
2023-04-19T13:30:58.756Z,43.40
2023-04-19T13:40:58.480Z,43.83
2023-04-19T13:50:58.541Z,46.19
2023-04-19T14:00:58.555Z,44.58
2023-04-19T14:10:58.460Z,43.99
2023-04-19T14:20:58.514Z,43.42
2023-04-19T14:30:58.516Z,44.42
2023-04-19T14:40:58.398Z,43.79
2023-04-19T14:50:58.424Z,43.35
2023-04-19T15:00:58.740Z,42.81
2023-04-19T15:10:58.465Z,42.38
2023-04-19T15:20:58.463Z,43.17
2023-04-19T15:30:58.592Z,41.54
2023-04-19T15:40:58.658Z,40.88
2023-04-19T15:50:58.602Z,39.92
2023-04-19T16:00:58.514Z,39.32
2023-04-19T16:10:58.565Z,39.47
2023-04-19T16:20:58.600Z,39.09
2023-04-19T16:30:58.494Z,39.97
2023-04-19T16:40:58.832Z,39.07
2023-04-19T16:50:58.627Z,40.67
2023-04-19T17:00:58.900Z,41.33
2023-04-19T17:10:58.825Z,41.50
2023-04-19T17:20:58.759Z,41.74
2023-04-19T17:30:58.756Z,42.51
2023-04-19T17:40:58.758Z,42.18
2023-04-19T17:50:58.942Z,41.34
2023-04-19T18:00:58.867Z,40.68
2023-04-19T18:10:59.018Z,41.27
2023-04-19T18:20:58.864Z,40.71
2023-04-19T18:30:58.816Z,41.23
2023-04-19T18:40:59.113Z,43.43
2023-04-19T18:50:59.446Z,46.73
2023-04-19T19:00:59.028Z,47.70
2023-04-19T19:20:59.470Z,53.83
